sensor_id;sensor_type;location;lat;lon;timestamp;P1;durP1;ratioP1;P2;durP2;ratioP2
62863;SDS011;48954;59.950;11.014;2023-06-26T00:00:17;15.00;;;8.50;;
62863;SDS011;48954;59.950;11.014;2023-06-26T00:03:04;16.80;;;8.30;;
62863;SDS011;48954;59.950;11.014;2023-06-26T00:05:30;18.20;;;8.50;;
62863;SDS011;48954;59.950;11.014;2023-06-26T00:07:57;16.80;;;7.50;;
62863;SDS011;48954;59.950;11.014;2023-06-26T00:10:23;12.30;;;6.90;;
62863;SDS011;48954;59.950;11.014;2023-06-26T00:12:50;13.50;;;6.90;;
62863;SDS011;48954;59.950;11.014;2023-06-26T00:15:16;12.40;;;6.70;;
62863;SDS011;48954;59.950;11.014;2023-06-26T00:17:43;16.10;;;8.00;;
62863;SDS011;48954;59.950;11.014;2023-06-26T00:20:09;17.80;;;8.50;;
62863;SDS011;48954;59.950;11.014;2023-06-26T00:22:36;16.00;;;9.20;;
62863;SDS011;48954;59.950;11.014;2023-06-26T00:25:02;19.50;;;9.30;;
62863;SDS011;48954;59.950;11.014;2023-06-26T00:27:29;18.70;;;9.50;;
62863;SDS011;48954;59.950;11.014;2023-06-26T00:29:55;18.80;;;10.00;;
62863;SDS011;48954;59.950;11.014;2023-06-26T00:32:22;19.60;;;9.40;;
62863;SDS011;48954;59.950;11.014;2023-06-26T00:34:48;19.60;;;10.10;;
62863;SDS011;48954;59.950;11.014;2023-06-26T00:37:15;21.60;;;9.70;;
62863;SDS011;48954;59.950;11.014;2023-06-26T00:39:41;20.40;;;10.50;;
62863;SDS011;48954;59.950;11.014;2023-06-26T00:42:08;22.00;;;11.80;;
62863;SDS011;48954;59.950;11.014;2023-06-26T00:44:34;21.90;;;11.50;;
62863;SDS011;48954;59.950;11.014;2023-06-26T00:47:03;25.50;;;11.40;;
62863;SDS011;48954;59.950;11.014;2023-06-26T00:49:30;23.20;;;11.70;;
62863;SDS011;48954;59.950;11.014;2023-06-26T00:51:57;20.70;;;9.90;;
62863;SDS011;48954;59.950;11.014;2023-06-26T00:54:23;19.50;;;10.10;;
62863;SDS011;48954;59.950;11.014;2023-06-26T00:56:50;21.20;;;10.70;;
62863;SDS011;48954;59.950;11.014;2023-06-26T00:59:16;19.00;;;9.30;;
62863;SDS011;48954;59.950;11.014;2023-06-26T01:01:43;19.30;;;9.60;;
62863;SDS011;48954;59.950;11.014;2023-06-26T01:04:10;17.50;;;8.80;;
62863;SDS011;48954;59.950;11.014;2023-06-26T01:06:36;17.20;;;8.80;;
62863;SDS011;48954;59.950;11.014;2023-06-26T01:09:03;20.60;;;10.00;;
62863;SDS011;48954;59.950;11.014;2023-06-26T01:11:30;16.20;;;8.10;;
62863;SDS011;48954;59.950;11.014;2023-06-26T01:13:56;20.20;;;9.00;;
62863;SDS011;48954;59.950;11.014;2023-06-26T01:16:27;16.40;;;8.30;;
62863;SDS011;48954;59.950;11.014;2023-06-26T01:18:55;17.90;;;9.30;;
62863;SDS011;48954;59.950;11.014;2023-06-26T01:21:22;16.30;;;8.00;;
62863;SDS011;48954;59.950;11.014;2023-06-26T01:26:31;18.60;;;9.10;;
62863;SDS011;48954;59.950;11.014;2023-06-26T01:29:00;17.20;;;8.30;;
62863;SDS011;48954;59.950;11.014;2023-06-26T01:31:29;22.50;;;9.10;;
62863;SDS011;48954;59.950;11.014;2023-06-26T01:33:59;24.00;;;10.20;;
62863;SDS011;48954;59.950;11.014;2023-06-26T01:36:27;24.00;;;10.50;;
62863;SDS011;48954;59.950;11.014;2023-06-26T01:38:53;21.90;;;9.90;;
62863;SDS011;48954;59.950;11.014;2023-06-26T01:41:20;26.20;;;11.50;;
62863;SDS011;48954;59.950;11.014;2023-06-26T01:50:07;25.40;;;10.90;;
62863;SDS011;48954;59.950;11.014;2023-06-26T01:52:37;27.00;;;12.10;;
62863;SDS011;48954;59.950;11.014;2023-06-26T01:55:35;23.00;;;10.60;;
62863;SDS011;48954;59.950;11.014;2023-06-26T01:58:17;24.40;;;11.20;;
62863;SDS011;48954;59.950;11.014;2023-06-26T02:00:48;22.00;;;10.20;;
62863;SDS011;48954;59.950;11.014;2023-06-26T02:03:15;27.60;;;13.10;;
62863;SDS011;48954;59.950;11.014;2023-06-26T02:05:42;23.70;;;11.00;;
62863;SDS011;48954;59.950;11.014;2023-06-26T02:08:08;22.10;;;10.10;;
62863;SDS011;48954;59.950;11.014;2023-06-26T02:10:35;22.70;;;11.20;;
62863;SDS011;48954;59.950;11.014;2023-06-26T02:13:01;25.60;;;12.20;;
62863;SDS011;48954;59.950;11.014;2023-06-26T02:15:28;23.60;;;10.60;;
62863;SDS011;48954;59.950;11.014;2023-06-26T02:17:54;22.80;;;10.20;;
62863;SDS011;48954;59.950;11.014;2023-06-26T02:20:21;24.80;;;10.60;;
62863;SDS011;48954;59.950;11.014;2023-06-26T02:22:47;21.10;;;10.10;;
62863;SDS011;48954;59.950;11.014;2023-06-26T02:25:14;24.50;;;10.40;;
62863;SDS011;48954;59.950;11.014;2023-06-26T02:27:41;24.90;;;10.90;;
62863;SDS011;48954;59.950;11.014;2023-06-26T02:30:08;23.10;;;10.10;;
62863;SDS011;48954;59.950;11.014;2023-06-26T02:32:35;20.40;;;10.70;;
62863;SDS011;48954;59.950;11.014;2023-06-26T02:35:01;18.80;;;10.00;;
62863;SDS011;48954;59.950;11.014;2023-06-26T02:37:28;22.50;;;11.20;;
62863;SDS011;48954;59.950;11.014;2023-06-26T02:39:54;20.40;;;10.40;;
62863;SDS011;48954;59.950;11.014;2023-06-26T02:42:21;18.50;;;9.10;;
62863;SDS011;48954;59.950;11.014;2023-06-26T02:44:47;17.70;;;9.30;;
62863;SDS011;48954;59.950;11.014;2023-06-26T02:47:14;16.00;;;8.50;;
62863;SDS011;48954;59.950;11.014;2023-06-26T02:49:40;19.00;;;9.40;;
62863;SDS011;48954;59.950;11.014;2023-06-26T02:52:07;19.60;;;9.10;;
62863;SDS011;48954;59.950;11.014;2023-06-26T02:54:33;21.20;;;10.60;;
62863;SDS011;48954;59.950;11.014;2023-06-26T02:57:00;17.70;;;9.00;;
62863;SDS011;48954;59.950;11.014;2023-06-26T02:59:26;20.80;;;10.20;;
62863;SDS011;48954;59.950;11.014;2023-06-26T03:01:53;20.30;;;9.30;;
62863;SDS011;48954;59.950;11.014;2023-06-26T03:04:19;20.90;;;10.30;;
62863;SDS011;48954;59.950;11.014;2023-06-26T03:06:46;19.30;;;9.70;;
62863;SDS011;48954;59.950;11.014;2023-06-26T03:09:12;19.00;;;9.40;;
62863;SDS011;48954;59.950;11.014;2023-06-26T03:11:39;20.10;;;9.70;;
62863;SDS011;48954;59.950;11.014;2023-06-26T03:14:05;22.30;;;10.10;;
62863;SDS011;48954;59.950;11.014;2023-06-26T03:16:32;18.30;;;9.70;;
62863;SDS011;48954;59.950;11.014;2023-06-26T03:18:58;20.40;;;11.10;;
62863;SDS011;48954;59.950;11.014;2023-06-26T03:21:25;20.20;;;10.30;;
62863;SDS011;48954;59.950;11.014;2023-06-26T03:23:51;19.70;;;9.50;;
62863;SDS011;48954;59.950;11.014;2023-06-26T03:26:18;17.40;;;9.10;;
62863;SDS011;48954;59.950;11.014;2023-06-26T03:28:44;15.00;;;8.30;;
62863;SDS011;48954;59.950;11.014;2023-06-26T03:31:11;15.20;;;8.40;;
62863;SDS011;48954;59.950;11.014;2023-06-26T03:33:37;15.20;;;8.10;;
62863;SDS011;48954;59.950;11.014;2023-06-26T03:36:04;13.70;;;7.70;;
62863;SDS011;48954;59.950;11.014;2023-06-26T03:38:30;21.70;;;10.30;;
62863;SDS011;48954;59.950;11.014;2023-06-26T03:40:57;24.20;;;13.40;;
62863;SDS011;48954;59.950;11.014;2023-06-26T03:43:24;20.20;;;11.80;;
62863;SDS011;48954;59.950;11.014;2023-06-26T03:45:50;21.00;;;11.90;;
62863;SDS011;48954;59.950;11.014;2023-06-26T03:48:17;19.80;;;11.70;;
62863;SDS011;48954;59.950;11.014;2023-06-26T03:50:44;23.50;;;11.50;;
62863;SDS011;48954;59.950;11.014;2023-06-26T03:53:11;17.30;;;10.90;;
62863;SDS011;48954;59.950;11.014;2023-06-26T03:55:37;15.40;;;8.40;;
62863;SDS011;48954;59.950;11.014;2023-06-26T03:58:04;12.90;;;7.50;;
62863;SDS011;48954;59.950;11.014;2023-06-26T04:00:31;13.60;;;7.80;;
62863;SDS011;48954;59.950;11.014;2023-06-26T04:02:57;11.80;;;7.00;;
62863;SDS011;48954;59.950;11.014;2023-06-26T04:05:24;16.80;;;10.40;;
62863;SDS011;48954;59.950;11.014;2023-06-26T04:07:50;13.90;;;8.70;;
62863;SDS011;48954;59.950;11.014;2023-06-26T04:10:18;13.90;;;7.40;;
62863;SDS011;48954;59.950;11.014;2023-06-26T04:12:44;10.70;;;6.70;;
62863;SDS011;48954;59.950;11.014;2023-06-26T04:15:11;11.50;;;7.00;;
62863;SDS011;48954;59.950;11.014;2023-06-26T04:17:37;12.20;;;7.20;;
62863;SDS011;48954;59.950;11.014;2023-06-26T04:20:04;10.80;;;7.20;;
62863;SDS011;48954;59.950;11.014;2023-06-26T04:22:31;12.50;;;7.70;;
62863;SDS011;48954;59.950;11.014;2023-06-26T04:25:00;12.20;;;7.50;;
62863;SDS011;48954;59.950;11.014;2023-06-26T04:27:29;13.50;;;7.40;;
62863;SDS011;48954;59.950;11.014;2023-06-26T04:29:55;12.10;;;7.10;;
62863;SDS011;48954;59.950;11.014;2023-06-26T04:32:22;10.70;;;6.60;;
62863;SDS011;48954;59.950;11.014;2023-06-26T04:34:48;9.00;;;6.60;;
62863;SDS011;48954;59.950;11.014;2023-06-26T04:37:15;12.40;;;7.40;;
62863;SDS011;48954;59.950;11.014;2023-06-26T04:39:41;9.60;;;5.90;;
62863;SDS011;48954;59.950;11.014;2023-06-26T04:42:08;8.80;;;5.20;;
62863;SDS011;48954;59.950;11.014;2023-06-26T04:44:35;8.00;;;5.70;;
62863;SDS011;48954;59.950;11.014;2023-06-26T04:47:01;7.80;;;4.60;;
62863;SDS011;48954;59.950;11.014;2023-06-26T04:49:28;7.30;;;4.80;;
62863;SDS011;48954;59.950;11.014;2023-06-26T04:51:55;6.10;;;4.70;;
62863;SDS011;48954;59.950;11.014;2023-06-26T04:54:22;8.30;;;4.70;;
62863;SDS011;48954;59.950;11.014;2023-06-26T04:56:48;7.90;;;5.00;;
62863;SDS011;48954;59.950;11.014;2023-06-26T04:59:15;7.10;;;5.00;;
62863;SDS011;48954;59.950;11.014;2023-06-26T05:01:41;6.30;;;4.70;;
62863;SDS011;48954;59.950;11.014;2023-06-26T05:04:08;6.60;;;4.40;;
62863;SDS011;48954;59.950;11.014;2023-06-26T05:06:35;6.00;;;4.20;;
62863;SDS011;48954;59.950;11.014;2023-06-26T05:09:01;6.80;;;4.20;;
62863;SDS011;48954;59.950;11.014;2023-06-26T05:11:28;6.80;;;4.20;;
62863;SDS011;48954;59.950;11.014;2023-06-26T05:13:58;5.40;;;4.30;;
62863;SDS011;48954;59.950;11.014;2023-06-26T05:16:24;6.90;;;4.50;;
62863;SDS011;48954;59.950;11.014;2023-06-26T05:18:51;6.30;;;4.10;;
62863;SDS011;48954;59.950;11.014;2023-06-26T05:21:17;6.00;;;4.90;;
62863;SDS011;48954;59.950;11.014;2023-06-26T05:23:44;6.50;;;4.30;;
62863;SDS011;48954;59.950;11.014;2023-06-26T05:26:11;5.50;;;4.10;;
62863;SDS011;48954;59.950;11.014;2023-06-26T05:28:38;6.10;;;4.00;;
62863;SDS011;48954;59.950;11.014;2023-06-26T05:31:05;7.40;;;4.50;;
62863;SDS011;48954;59.950;11.014;2023-06-26T05:33:32;5.60;;;4.20;;
62863;SDS011;48954;59.950;11.014;2023-06-26T05:36:01;7.20;;;4.30;;
62863;SDS011;48954;59.950;11.014;2023-06-26T05:38:30;4.90;;;3.60;;
62863;SDS011;48954;59.950;11.014;2023-06-26T05:40:57;6.30;;;4.30;;
62863;SDS011;48954;59.950;11.014;2023-06-26T05:43:24;7.90;;;4.70;;
62863;SDS011;48954;59.950;11.014;2023-06-26T05:45:50;9.30;;;4.80;;
62863;SDS011;48954;59.950;11.014;2023-06-26T05:48:17;5.00;;;4.30;;
62863;SDS011;48954;59.950;11.014;2023-06-26T05:50:44;5.80;;;4.70;;
62863;SDS011;48954;59.950;11.014;2023-06-26T05:53:11;6.90;;;4.80;;
62863;SDS011;48954;59.950;11.014;2023-06-26T05:55:37;8.40;;;4.20;;
62863;SDS011;48954;59.950;11.014;2023-06-26T05:58:04;5.90;;;4.00;;
62863;SDS011;48954;59.950;11.014;2023-06-26T06:00:31;6.70;;;4.50;;
62863;SDS011;48954;59.950;11.014;2023-06-26T06:02:58;5.60;;;4.00;;
62863;SDS011;48954;59.950;11.014;2023-06-26T06:05:25;8.50;;;4.20;;
62863;SDS011;48954;59.950;11.014;2023-06-26T06:07:51;7.50;;;4.00;;
62863;SDS011;48954;59.950;11.014;2023-06-26T06:10:18;6.20;;;4.20;;
62863;SDS011;48954;59.950;11.014;2023-06-26T06:12:44;7.50;;;3.50;;
62863;SDS011;48954;59.950;11.014;2023-06-26T06:15:11;6.70;;;3.80;;
62863;SDS011;48954;59.950;11.014;2023-06-26T06:17:37;5.70;;;3.60;;
62863;SDS011;48954;59.950;11.014;2023-06-26T06:20:04;4.80;;;3.00;;
62863;SDS011;48954;59.950;11.014;2023-06-26T06:22:31;4.40;;;3.30;;
62863;SDS011;48954;59.950;11.014;2023-06-26T06:24:57;6.10;;;3.80;;
62863;SDS011;48954;59.950;11.014;2023-06-26T06:27:24;4.50;;;3.60;;
62863;SDS011;48954;59.950;11.014;2023-06-26T06:29:50;4.20;;;3.10;;
62863;SDS011;48954;59.950;11.014;2023-06-26T06:32:17;5.10;;;3.60;;
62863;SDS011;48954;59.950;11.014;2023-06-26T06:34:43;5.40;;;3.40;;
62863;SDS011;48954;59.950;11.014;2023-06-26T06:37:10;5.00;;;3.40;;
62863;SDS011;48954;59.950;11.014;2023-06-26T06:39:36;4.10;;;3.30;;
62863;SDS011;48954;59.950;11.014;2023-06-26T06:42:03;6.60;;;3.40;;
62863;SDS011;48954;59.950;11.014;2023-06-26T06:44:30;6.80;;;3.90;;
62863;SDS011;48954;59.950;11.014;2023-06-26T06:47:02;3.90;;;3.00;;
62863;SDS011;48954;59.950;11.014;2023-06-26T06:49:29;3.90;;;2.90;;
62863;SDS011;48954;59.950;11.014;2023-06-26T06:51:56;3.70;;;3.00;;
62863;SDS011;48954;59.950;11.014;2023-06-26T06:54:25;4.60;;;3.20;;
62863;SDS011;48954;59.950;11.014;2023-06-26T06:56:52;4.60;;;3.10;;
62863;SDS011;48954;59.950;11.014;2023-06-26T06:59:18;4.40;;;3.10;;
62863;SDS011;48954;59.950;11.014;2023-06-26T07:01:48;4.30;;;3.10;;
62863;SDS011;48954;59.950;11.014;2023-06-26T07:04:15;4.60;;;3.00;;
62863;SDS011;48954;59.950;11.014;2023-06-26T07:06:41;4.20;;;2.90;;
62863;SDS011;48954;59.950;11.014;2023-06-26T07:09:09;3.40;;;2.80;;
62863;SDS011;48954;59.950;11.014;2023-06-26T07:11:35;5.00;;;3.30;;
62863;SDS011;48954;59.950;11.014;2023-06-26T07:14:02;3.00;;;2.70;;
62863;SDS011;48954;59.950;11.014;2023-06-26T07:16:28;3.70;;;2.90;;
62863;SDS011;48954;59.950;11.014;2023-06-26T07:18:55;3.20;;;2.50;;
62863;SDS011;48954;59.950;11.014;2023-06-26T07:21:21;4.40;;;2.90;;
62863;SDS011;48954;59.950;11.014;2023-06-26T07:23:48;3.90;;;2.60;;
62863;SDS011;48954;59.950;11.014;2023-06-26T07:26:14;3.50;;;2.90;;
62863;SDS011;48954;59.950;11.014;2023-06-26T07:28:41;4.10;;;2.60;;
62863;SDS011;48954;59.950;11.014;2023-06-26T07:31:08;4.40;;;3.20;;
62863;SDS011;48954;59.950;11.014;2023-06-26T07:33:34;4.20;;;3.20;;
62863;SDS011;48954;59.950;11.014;2023-06-26T07:36:01;3.90;;;3.00;;
62863;SDS011;48954;59.950;11.014;2023-06-26T07:38:27;5.90;;;3.10;;
62863;SDS011;48954;59.950;11.014;2023-06-26T07:40:54;3.30;;;2.70;;
62863;SDS011;48954;59.950;11.014;2023-06-26T07:43:20;5.90;;;3.10;;
62863;SDS011;48954;59.950;11.014;2023-06-26T07:45:47;6.20;;;3.30;;
62863;SDS011;48954;59.950;11.014;2023-06-26T07:48:13;4.00;;;3.30;;
62863;SDS011;48954;59.950;11.014;2023-06-26T07:50:40;4.30;;;3.10;;
62863;SDS011;48954;59.950;11.014;2023-06-26T07:53:06;5.20;;;3.90;;
62863;SDS011;48954;59.950;11.014;2023-06-26T07:55:32;4.10;;;3.20;;
62863;SDS011;48954;59.950;11.014;2023-06-26T07:57:59;5.00;;;3.80;;
62863;SDS011;48954;59.950;11.014;2023-06-26T08:00:26;5.20;;;3.80;;
62863;SDS011;48954;59.950;11.014;2023-06-26T08:02:52;4.00;;;3.60;;
62863;SDS011;48954;59.950;11.014;2023-06-26T08:05:19;4.60;;;3.50;;
62863;SDS011;48954;59.950;11.014;2023-06-26T08:07:46;4.00;;;3.60;;
62863;SDS011;48954;59.950;11.014;2023-06-26T08:10:13;4.40;;;3.70;;
62863;SDS011;48954;59.950;11.014;2023-06-26T08:12:39;4.50;;;3.30;;
62863;SDS011;48954;59.950;11.014;2023-06-26T08:15:06;4.90;;;3.60;;
62863;SDS011;48954;59.950;11.014;2023-06-26T08:17:35;4.10;;;3.50;;
62863;SDS011;48954;59.950;11.014;2023-06-26T08:20:02;4.00;;;3.40;;
62863;SDS011;48954;59.950;11.014;2023-06-26T08:22:28;4.50;;;3.30;;
62863;SDS011;48954;59.950;11.014;2023-06-26T08:24:55;5.30;;;3.80;;
62863;SDS011;48954;59.950;11.014;2023-06-26T08:27:22;4.80;;;3.70;;
62863;SDS011;48954;59.950;11.014;2023-06-26T08:29:48;3.80;;;3.40;;
62863;SDS011;48954;59.950;11.014;2023-06-26T08:32:15;3.90;;;3.00;;
62863;SDS011;48954;59.950;11.014;2023-06-26T08:34:47;4.70;;;3.50;;
62863;SDS011;48954;59.950;11.014;2023-06-26T08:37:14;3.60;;;3.10;;
62863;SDS011;48954;59.950;11.014;2023-06-26T08:39:40;4.50;;;3.20;;
62863;SDS011;48954;59.950;11.014;2023-06-26T08:42:07;4.60;;;3.30;;
62863;SDS011;48954;59.950;11.014;2023-06-26T08:44:34;3.90;;;3.30;;
62863;SDS011;48954;59.950;11.014;2023-06-26T08:47:00;3.40;;;2.90;;
62863;SDS011;48954;59.950;11.014;2023-06-26T08:49:46;3.50;;;2.80;;
62863;SDS011;48954;59.950;11.014;2023-06-26T08:52:22;3.40;;;3.10;;
62863;SDS011;48954;59.950;11.014;2023-06-26T08:54:52;3.80;;;2.80;;
62863;SDS011;48954;59.950;11.014;2023-06-26T08:57:23;3.80;;;2.70;;
62863;SDS011;48954;59.950;11.014;2023-06-26T08:59:52;4.30;;;3.00;;
62863;SDS011;48954;59.950;11.014;2023-06-26T09:02:19;4.50;;;3.40;;
62863;SDS011;48954;59.950;11.014;2023-06-26T09:04:48;3.10;;;2.70;;
62863;SDS011;48954;59.950;11.014;2023-06-26T09:07:15;3.90;;;3.10;;
62863;SDS011;48954;59.950;11.014;2023-06-26T09:09:42;4.10;;;3.10;;
62863;SDS011;48954;59.950;11.014;2023-06-26T09:12:09;5.10;;;3.40;;
62863;SDS011;48954;59.950;11.014;2023-06-26T09:14:36;3.60;;;3.00;;
62863;SDS011;48954;59.950;11.014;2023-06-26T09:17:03;4.10;;;3.60;;
62863;SDS011;48954;59.950;11.014;2023-06-26T09:19:30;4.60;;;3.70;;
62863;SDS011;48954;59.950;11.014;2023-06-26T09:21:57;4.00;;;3.40;;
62863;SDS011;48954;59.950;11.014;2023-06-26T09:24:26;4.40;;;3.60;;
62863;SDS011;48954;59.950;11.014;2023-06-26T09:26:52;5.20;;;3.80;;
62863;SDS011;48954;59.950;11.014;2023-06-26T09:29:19;4.00;;;3.40;;
62863;SDS011;48954;59.950;11.014;2023-06-26T09:31:46;4.70;;;3.80;;
62863;SDS011;48954;59.950;11.014;2023-06-26T09:34:12;6.40;;;4.30;;
62863;SDS011;48954;59.950;11.014;2023-06-26T09:36:40;5.00;;;4.30;;
62863;SDS011;48954;59.950;11.014;2023-06-26T09:39:07;4.40;;;3.80;;
62863;SDS011;48954;59.950;11.014;2023-06-26T09:41:35;5.30;;;4.10;;
62863;SDS011;48954;59.950;11.014;2023-06-26T09:44:02;4.60;;;4.10;;
62863;SDS011;48954;59.950;11.014;2023-06-26T09:46:31;6.10;;;4.30;;
62863;SDS011;48954;59.950;11.014;2023-06-26T09:49:07;4.90;;;3.90;;
62863;SDS011;48954;59.950;11.014;2023-06-26T09:51:35;6.10;;;4.40;;
62863;SDS011;48954;59.950;11.014;2023-06-26T09:54:04;5.00;;;4.00;;
62863;SDS011;48954;59.950;11.014;2023-06-26T09:56:32;6.10;;;4.10;;
62863;SDS011;48954;59.950;11.014;2023-06-26T09:59:00;6.30;;;4.50;;
62863;SDS011;48954;59.950;11.014;2023-06-26T10:01:29;4.70;;;3.90;;
62863;SDS011;48954;59.950;11.014;2023-06-26T10:03:57;6.20;;;3.90;;
62863;SDS011;48954;59.950;11.014;2023-06-26T10:06:33;6.60;;;4.10;;
62863;SDS011;48954;59.950;11.014;2023-06-26T10:09:03;5.40;;;4.00;;
62863;SDS011;48954;59.950;11.014;2023-06-26T10:11:37;4.40;;;4.00;;
62863;SDS011;48954;59.950;11.014;2023-06-26T10:14:11;7.00;;;4.40;;
62863;SDS011;48954;59.950;11.014;2023-06-26T10:16:38;4.30;;;3.90;;
62863;SDS011;48954;59.950;11.014;2023-06-26T10:19:08;4.40;;;3.50;;
62863;SDS011;48954;59.950;11.014;2023-06-26T10:21:37;4.60;;;4.10;;
62863;SDS011;48954;59.950;11.014;2023-06-26T10:24:05;4.10;;;3.70;;
62863;SDS011;48954;59.950;11.014;2023-06-26T10:26:38;4.80;;;4.20;;
62863;SDS011;48954;59.950;11.014;2023-06-26T10:29:10;4.80;;;4.20;;
62863;SDS011;48954;59.950;11.014;2023-06-26T10:31:53;4.40;;;3.80;;
62863;SDS011;48954;59.950;11.014;2023-06-26T10:34:23;5.00;;;4.50;;
62863;SDS011;48954;59.950;11.014;2023-06-26T10:37:00;4.90;;;4.30;;
62863;SDS011;48954;59.950;11.014;2023-06-26T10:42:18;5.70;;;3.90;;
62863;SDS011;48954;59.950;11.014;2023-06-26T10:44:47;5.80;;;5.20;;
62863;SDS011;48954;59.950;11.014;2023-06-26T10:47:30;5.30;;;4.40;;
62863;SDS011;48954;59.950;11.014;2023-06-26T10:50:18;4.90;;;4.30;;
62863;SDS011;48954;59.950;11.014;2023-06-26T10:52:44;4.70;;;4.20;;
62863;SDS011;48954;59.950;11.014;2023-06-26T10:55:13;5.60;;;4.50;;
62863;SDS011;48954;59.950;11.014;2023-06-26T10:57:40;5.00;;;4.50;;
62863;SDS011;48954;59.950;11.014;2023-06-26T11:00:14;7.70;;;4.50;;
62863;SDS011;48954;59.950;11.014;2023-06-26T11:02:48;5.70;;;5.00;;
62863;SDS011;48954;59.950;11.014;2023-06-26T11:05:27;6.00;;;4.70;;
62863;SDS011;48954;59.950;11.014;2023-06-26T11:08:32;6.00;;;4.60;;
62863;SDS011;48954;59.950;11.014;2023-06-26T11:11:10;6.40;;;5.20;;
62863;SDS011;48954;59.950;11.014;2023-06-26T11:13:37;6.10;;;4.80;;
62863;SDS011;48954;59.950;11.014;2023-06-26T11:16:05;6.30;;;4.80;;
62863;SDS011;48954;59.950;11.014;2023-06-26T11:18:32;5.60;;;4.90;;
62863;SDS011;48954;59.950;11.014;2023-06-26T11:21:08;5.60;;;4.80;;
62863;SDS011;48954;59.950;11.014;2023-06-26T11:23:36;6.00;;;4.80;;
62863;SDS011;48954;59.950;11.014;2023-06-26T11:26:16;6.10;;;5.10;;
62863;SDS011;48954;59.950;11.014;2023-06-26T11:28:49;5.30;;;4.80;;
62863;SDS011;48954;59.950;11.014;2023-06-26T11:31:32;5.60;;;5.00;;
62863;SDS011;48954;59.950;11.014;2023-06-26T11:34:04;5.20;;;4.70;;
62863;SDS011;48954;59.950;11.014;2023-06-26T11:36:32;5.80;;;5.10;;
62863;SDS011;48954;59.950;11.014;2023-06-26T11:39:00;6.10;;;5.00;;
62863;SDS011;48954;59.950;11.014;2023-06-26T11:41:28;6.00;;;5.10;;
62863;SDS011;48954;59.950;11.014;2023-06-26T11:44:06;6.00;;;4.90;;
62863;SDS011;48954;59.950;11.014;2023-06-26T11:46:34;6.50;;;5.10;;
62863;SDS011;48954;59.950;11.014;2023-06-26T11:49:05;5.90;;;5.30;;
62863;SDS011;48954;59.950;11.014;2023-06-26T11:51:33;6.10;;;5.10;;
62863;SDS011;48954;59.950;11.014;2023-06-26T11:54:02;6.30;;;5.70;;
62863;SDS011;48954;59.950;11.014;2023-06-26T11:56:29;6.40;;;5.10;;
62863;SDS011;48954;59.950;11.014;2023-06-26T11:59:10;7.30;;;5.50;;
62863;SDS011;48954;59.950;11.014;2023-06-26T12:01:41;5.50;;;4.80;;
62863;SDS011;48954;59.950;11.014;2023-06-26T12:04:11;5.80;;;4.90;;
62863;SDS011;48954;59.950;11.014;2023-06-26T12:06:46;6.20;;;5.60;;
62863;SDS011;48954;59.950;11.014;2023-06-26T12:09:15;6.00;;;5.20;;
62863;SDS011;48954;59.950;11.014;2023-06-26T12:11:46;5.80;;;5.20;;
62863;SDS011;48954;59.950;11.014;2023-06-26T12:14:14;7.40;;;5.10;;
62863;SDS011;48954;59.950;11.014;2023-06-26T12:16:43;5.80;;;4.90;;
62863;SDS011;48954;59.950;11.014;2023-06-26T12:19:09;7.20;;;5.50;;
62863;SDS011;48954;59.950;11.014;2023-06-26T12:24:03;5.30;;;4.80;;
62863;SDS011;48954;59.950;11.014;2023-06-26T12:26:34;6.00;;;4.90;;
62863;SDS011;48954;59.950;11.014;2023-06-26T12:29:05;7.40;;;4.80;;
62863;SDS011;48954;59.950;11.014;2023-06-26T12:31:33;7.30;;;5.10;;
62863;SDS011;48954;59.950;11.014;2023-06-26T12:34:01;6.50;;;5.30;;
62863;SDS011;48954;59.950;11.014;2023-06-26T12:36:28;8.10;;;5.60;;
62863;SDS011;48954;59.950;11.014;2023-06-26T12:38:54;6.40;;;5.40;;
62863;SDS011;48954;59.950;11.014;2023-06-26T12:41:23;5.80;;;5.10;;
62863;SDS011;48954;59.950;11.014;2023-06-26T12:43:55;7.10;;;5.50;;
62863;SDS011;48954;59.950;11.014;2023-06-26T12:46:33;7.10;;;5.20;;
62863;SDS011;48954;59.950;11.014;2023-06-26T12:49:01;5.90;;;4.90;;
62863;SDS011;48954;59.950;11.014;2023-06-26T12:51:28;7.00;;;5.10;;
62863;SDS011;48954;59.950;11.014;2023-06-26T12:53:54;6.20;;;5.40;;
62863;SDS011;48954;59.950;11.014;2023-06-26T12:56:21;6.30;;;5.20;;
62863;SDS011;48954;59.950;11.014;2023-06-26T12:58:47;6.40;;;4.80;;
62863;SDS011;48954;59.950;11.014;2023-06-26T13:01:14;6.80;;;5.10;;
62863;SDS011;48954;59.950;11.014;2023-06-26T13:03:41;6.60;;;4.80;;
62863;SDS011;48954;59.950;11.014;2023-06-26T13:06:07;7.70;;;5.50;;
62863;SDS011;48954;59.950;11.014;2023-06-26T13:08:34;8.40;;;5.60;;
62863;SDS011;48954;59.950;11.014;2023-06-26T13:11:01;7.20;;;5.50;;
62863;SDS011;48954;59.950;11.014;2023-06-26T13:13:27;8.10;;;5.80;;
62863;SDS011;48954;59.950;11.014;2023-06-26T13:15:54;7.30;;;6.00;;
62863;SDS011;48954;59.950;11.014;2023-06-26T13:18:20;6.80;;;5.00;;
62863;SDS011;48954;59.950;11.014;2023-06-26T13:20:50;8.40;;;6.30;;
62863;SDS011;48954;59.950;11.014;2023-06-26T13:23:17;8.00;;;5.00;;
62863;SDS011;48954;59.950;11.014;2023-06-26T13:25:43;6.60;;;5.60;;
62863;SDS011;48954;59.950;11.014;2023-06-26T13:28:10;7.20;;;5.60;;
62863;SDS011;48954;59.950;11.014;2023-06-26T13:30:36;6.50;;;4.80;;
62863;SDS011;48954;59.950;11.014;2023-06-26T13:33:03;8.70;;;6.60;;
62863;SDS011;48954;59.950;11.014;2023-06-26T13:35:29;7.70;;;5.40;;
62863;SDS011;48954;59.950;11.014;2023-06-26T13:37:56;7.30;;;6.00;;
62863;SDS011;48954;59.950;11.014;2023-06-26T13:40:23;7.10;;;6.00;;
62863;SDS011;48954;59.950;11.014;2023-06-26T13:42:49;7.10;;;5.70;;
62863;SDS011;48954;59.950;11.014;2023-06-26T13:45:16;6.70;;;5.60;;
62863;SDS011;48954;59.950;11.014;2023-06-26T13:47:42;8.20;;;6.00;;
62863;SDS011;48954;59.950;11.014;2023-06-26T13:50:10;6.60;;;5.10;;
62863;SDS011;48954;59.950;11.014;2023-06-26T13:52:36;6.70;;;5.30;;
62863;SDS011;48954;59.950;11.014;2023-06-26T13:55:03;7.10;;;5.30;;
62863;SDS011;48954;59.950;11.014;2023-06-26T13:57:30;7.20;;;5.20;;
62863;SDS011;48954;59.950;11.014;2023-06-26T13:59:58;7.60;;;5.40;;
62863;SDS011;48954;59.950;11.014;2023-06-26T14:02:24;7.70;;;5.40;;
62863;SDS011;48954;59.950;11.014;2023-06-26T14:04:51;10.20;;;5.50;;
62863;SDS011;48954;59.950;11.014;2023-06-26T14:07:19;7.70;;;6.00;;
62863;SDS011;48954;59.950;11.014;2023-06-26T14:09:45;9.20;;;6.50;;
62863;SDS011;48954;59.950;11.014;2023-06-26T14:12:12;8.60;;;7.40;;
62863;SDS011;48954;59.950;11.014;2023-06-26T14:14:39;9.00;;;7.20;;
62863;SDS011;48954;59.950;11.014;2023-06-26T14:17:05;7.50;;;6.70;;
62863;SDS011;48954;59.950;11.014;2023-06-26T14:19:32;8.30;;;6.80;;
62863;SDS011;48954;59.950;11.014;2023-06-26T14:21:58;7.10;;;6.00;;
62863;SDS011;48954;59.950;11.014;2023-06-26T14:24:25;7.60;;;6.70;;
62863;SDS011;48954;59.950;11.014;2023-06-26T14:26:54;9.10;;;6.80;;
62863;SDS011;48954;59.950;11.014;2023-06-26T14:29:21;9.90;;;6.80;;
62863;SDS011;48954;59.950;11.014;2023-06-26T14:31:47;9.40;;;7.00;;
62863;SDS011;48954;59.950;11.014;2023-06-26T14:34:14;8.60;;;7.20;;
62863;SDS011;48954;59.950;11.014;2023-06-26T14:36:40;8.80;;;7.70;;
62863;SDS011;48954;59.950;11.014;2023-06-26T14:39:11;10.90;;;7.20;;
62863;SDS011;48954;59.950;11.014;2023-06-26T14:41:38;8.80;;;7.10;;
62863;SDS011;48954;59.950;11.014;2023-06-26T14:44:04;10.40;;;7.70;;
62863;SDS011;48954;59.950;11.014;2023-06-26T14:46:31;9.30;;;6.80;;